sensor_id;sensor_type;location;lat;lon;timestamp;temperature;humidity
770;DHT22;368;48.698;9.116;2023-04-28T00:02:13;10.00;99.90
770;DHT22;368;48.698;9.116;2023-04-28T00:04:42;10.10;99.90
770;DHT22;368;48.698;9.116;2023-04-28T00:07:10;10.00;99.90
770;DHT22;368;48.698;9.116;2023-04-28T00:09:36;10.10;99.90
770;DHT22;368;48.698;9.116;2023-04-28T00:12:04;9.90;99.90
770;DHT22;368;48.698;9.116;2023-04-28T00:14:31;10.30;99.90
770;DHT22;368;48.698;9.116;2023-04-28T00:16:57;10.00;99.90
770;DHT22;368;48.698;9.116;2023-04-28T00:19:24;10.30;99.90
770;DHT22;368;48.698;9.116;2023-04-28T00:21:53;10.10;99.90
770;DHT22;368;48.698;9.116;2023-04-28T00:24:19;10.00;99.90
770;DHT22;368;48.698;9.116;2023-04-28T00:26:46;10.10;99.90
770;DHT22;368;48.698;9.116;2023-04-28T00:29:13;9.80;99.90
770;DHT22;368;48.698;9.116;2023-04-28T00:31:39;9.90;99.90
770;DHT22;368;48.698;9.116;2023-04-28T00:34:06;9.70;99.90
770;DHT22;368;48.698;9.116;2023-04-28T00:36:33;9.80;99.90
770;DHT22;368;48.698;9.116;2023-04-28T00:39:01;9.80;99.90
770;DHT22;368;48.698;9.116;2023-04-28T00:41:28;10.00;99.90
770;DHT22;368;48.698;9.116;2023-04-28T00:43:55;9.90;99.90
770;DHT22;368;48.698;9.116;2023-04-28T00:46:24;10.00;99.90
770;DHT22;368;48.698;9.116;2023-04-28T00:48:52;10.20;99.90
770;DHT22;368;48.698;9.116;2023-04-28T00:51:19;10.20;99.90
770;DHT22;368;48.698;9.116;2023-04-28T00:53:46;9.80;99.90
770;DHT22;368;48.698;9.116;2023-04-28T00:56:14;9.80;99.90
770;DHT22;368;48.698;9.116;2023-04-28T00:58:42;10.10;99.90
770;DHT22;368;48.698;9.116;2023-04-28T01:01:09;9.80;99.90
770;DHT22;368;48.698;9.116;2023-04-28T01:03:37;9.90;99.90
770;DHT22;368;48.698;9.116;2023-04-28T01:06:04;9.80;99.90
770;DHT22;368;48.698;9.116;2023-04-28T01:08:32;10.20;99.90
770;DHT22;368;48.698;9.116;2023-04-28T01:11:00;10.20;99.90
770;DHT22;368;48.698;9.116;2023-04-28T01:13:28;10.10;99.90
770;DHT22;368;48.698;9.116;2023-04-28T01:15:55;9.90;99.90
770;DHT22;368;48.698;9.116;2023-04-28T01:18:23;9.90;99.90
770;DHT22;368;48.698;9.116;2023-04-28T01:20:50;10.00;99.90
770;DHT22;368;48.698;9.116;2023-04-28T01:23:17;9.80;99.90
770;DHT22;368;48.698;9.116;2023-04-28T01:25:46;9.90;99.90
770;DHT22;368;48.698;9.116;2023-04-28T01:28:12;9.70;99.90
770;DHT22;368;48.698;9.116;2023-04-28T01:30:39;9.70;99.90
770;DHT22;368;48.698;9.116;2023-04-28T01:33:06;9.70;99.90
770;DHT22;368;48.698;9.116;2023-04-28T01:35:33;10.10;99.90
770;DHT22;368;48.698;9.116;2023-04-28T01:38:00;10.10;99.90
770;DHT22;368;48.698;9.116;2023-04-28T01:40:27;10.30;99.90
770;DHT22;368;48.698;9.116;2023-04-28T01:42:55;10.00;99.90
770;DHT22;368;48.698;9.116;2023-04-28T01:45:22;10.30;99.90
770;DHT22;368;48.698;9.116;2023-04-28T01:47:48;10.40;99.90
770;DHT22;368;48.698;9.116;2023-04-28T01:50:15;10.20;99.90
770;DHT22;368;48.698;9.116;2023-04-28T01:52:42;10.20;99.90
770;DHT22;368;48.698;9.116;2023-04-28T01:55:09;10.10;99.90
770;DHT22;368;48.698;9.116;2023-04-28T01:57:36;10.30;99.90
770;DHT22;368;48.698;9.116;2023-04-28T02:00:06;10.40;99.90
770;DHT22;368;48.698;9.116;2023-04-28T02:02:33;10.50;99.90
770;DHT22;368;48.698;9.116;2023-04-28T02:05:01;10.20;99.90
770;DHT22;368;48.698;9.116;2023-04-28T02:07:28;10.00;99.90
770;DHT22;368;48.698;9.116;2023-04-28T02:09:54;10.20;99.90
770;DHT22;368;48.698;9.116;2023-04-28T02:12:21;10.20;99.90
770;DHT22;368;48.698;9.116;2023-04-28T02:14:48;10.40;99.90
770;DHT22;368;48.698;9.116;2023-04-28T02:17:17;10.30;99.90
770;DHT22;368;48.698;9.116;2023-04-28T02:19:43;10.20;99.90
770;DHT22;368;48.698;9.116;2023-04-28T02:22:10;10.10;99.90
770;DHT22;368;48.698;9.116;2023-04-28T02:24:37;10.20;99.90
770;DHT22;368;48.698;9.116;2023-04-28T02:27:05;10.50;99.90
770;DHT22;368;48.698;9.116;2023-04-28T02:29:32;10.40;99.90
770;DHT22;368;48.698;9.116;2023-04-28T02:31:58;10.00;99.90
770;DHT22;368;48.698;9.116;2023-04-28T02:34:26;10.10;99.90
770;DHT22;368;48.698;9.116;2023-04-28T02:36:53;10.00;99.90
770;DHT22;368;48.698;9.116;2023-04-28T02:39:20;10.20;99.90
770;DHT22;368;48.698;9.116;2023-04-28T02:41:49;9.90;99.90
770;DHT22;368;48.698;9.116;2023-04-28T02:44:17;10.30;99.90
770;DHT22;368;48.698;9.116;2023-04-28T02:46:43;10.20;99.90
770;DHT22;368;48.698;9.116;2023-04-28T02:49:10;10.20;99.90
770;DHT22;368;48.698;9.116;2023-04-28T02:51:38;10.60;99.90
770;DHT22;368;48.698;9.116;2023-04-28T02:54:05;10.30;99.90
770;DHT22;368;48.698;9.116;2023-04-28T02:56:32;10.50;99.90
770;DHT22;368;48.698;9.116;2023-04-28T02:58:59;10.10;99.90
770;DHT22;368;48.698;9.116;2023-04-28T03:01:26;10.30;99.90
770;DHT22;368;48.698;9.116;2023-04-28T03:03:52;10.20;99.90
770;DHT22;368;48.698;9.116;2023-04-28T03:06:19;10.30;99.90
770;DHT22;368;48.698;9.116;2023-04-28T03:08:47;10.30;99.90
770;DHT22;368;48.698;9.116;2023-04-28T03:11:14;10.50;99.90
770;DHT22;368;48.698;9.116;2023-04-28T03:13:41;10.40;99.90
770;DHT22;368;48.698;9.116;2023-04-28T03:16:07;10.30;99.90
770;DHT22;368;48.698;9.116;2023-04-28T03:18:34;10.20;99.90
770;DHT22;368;48.698;9.116;2023-04-28T03:21:01;10.10;99.90
770;DHT22;368;48.698;9.116;2023-04-28T03:23:28;10.50;99.90
770;DHT22;368;48.698;9.116;2023-04-28T03:25:56;10.20;99.90
770;DHT22;368;48.698;9.116;2023-04-28T03:28:23;10.10;99.90
770;DHT22;368;48.698;9.116;2023-04-28T03:30:50;10.10;99.90
770;DHT22;368;48.698;9.116;2023-04-28T03:33:17;10.50;99.90
770;DHT22;368;48.698;9.116;2023-04-28T03:35:44;10.50;99.90
770;DHT22;368;48.698;9.116;2023-04-28T03:38:10;10.50;99.90
770;DHT22;368;48.698;9.116;2023-04-28T03:40:37;10.40;99.90
770;DHT22;368;48.698;9.116;2023-04-28T03:43:05;10.70;99.90
770;DHT22;368;48.698;9.116;2023-04-28T03:45:32;10.70;99.90
770;DHT22;368;48.698;9.116;2023-04-28T03:47:59;10.30;99.90
770;DHT22;368;48.698;9.116;2023-04-28T03:50:26;10.40;99.90
770;DHT22;368;48.698;9.116;2023-04-28T03:52:53;10.30;99.90
770;DHT22;368;48.698;9.116;2023-04-28T03:55:19;10.60;99.90
770;DHT22;368;48.698;9.116;2023-04-28T03:57:46;10.70;99.90
770;DHT22;368;48.698;9.116;2023-04-28T04:00:15;10.70;99.90
770;DHT22;368;48.698;9.116;2023-04-28T04:02:41;11.10;99.90
770;DHT22;368;48.698;9.116;2023-04-28T04:05:08;11.00;99.90
770;DHT22;368;48.698;9.116;2023-04-28T04:07:35;11.10;99.90
770;DHT22;368;48.698;9.116;2023-04-28T04:10:02;11.00;99.90
770;DHT22;368;48.698;9.116;2023-04-28T04:12:29;11.30;99.90
770;DHT22;368;48.698;9.116;2023-04-28T04:14:55;11.50;99.90
770;DHT22;368;48.698;9.116;2023-04-28T04:17:23;11.40;99.90
770;DHT22;368;48.698;9.116;2023-04-28T04:19:50;11.40;99.90
770;DHT22;368;48.698;9.116;2023-04-28T04:22:17;11.30;99.90
770;DHT22;368;48.698;9.116;2023-04-28T04:24:44;11.70;99.90
770;DHT22;368;48.698;9.116;2023-04-28T04:27:11;11.90;99.90
770;DHT22;368;48.698;9.116;2023-04-28T04:29:38;11.80;99.90
770;DHT22;368;48.698;9.116;2023-04-28T04:32:05;11.70;99.90
770;DHT22;368;48.698;9.116;2023-04-28T04:34:33;11.90;99.90
770;DHT22;368;48.698;9.116;2023-04-28T04:37:00;12.00;99.90
770;DHT22;368;48.698;9.116;2023-04-28T04:39:27;12.00;99.90
770;DHT22;368;48.698;9.116;2023-04-28T04:41:53;11.90;99.90
770;DHT22;368;48.698;9.116;2023-04-28T04:44:20;12.00;99.90
770;DHT22;368;48.698;9.116;2023-04-28T04:46:47;12.00;99.90
770;DHT22;368;48.698;9.116;2023-04-28T04:49:14;11.80;99.90
770;DHT22;368;48.698;9.116;2023-04-28T04:51:42;11.80;99.90
770;DHT22;368;48.698;9.116;2023-04-28T04:54:09;12.00;99.90
770;DHT22;368;48.698;9.116;2023-04-28T04:56:35;11.70;99.90
770;DHT22;368;48.698;9.116;2023-04-28T04:59:02;11.80;99.90
770;DHT22;368;48.698;9.116;2023-04-28T05:01:29;11.70;99.90
770;DHT22;368;48.698;9.116;2023-04-28T05:03:56;11.40;99.90
770;DHT22;368;48.698;9.116;2023-04-28T05:06:23;11.60;99.90
770;DHT22;368;48.698;9.116;2023-04-28T05:08:51;11.50;99.90
770;DHT22;368;48.698;9.116;2023-04-28T05:11:18;11.50;99.90
770;DHT22;368;48.698;9.116;2023-04-28T05:13:44;11.50;99.90
770;DHT22;368;48.698;9.116;2023-04-28T05:16:11;11.60;99.90
770;DHT22;368;48.698;9.116;2023-04-28T05:18:38;11.50;99.90
770;DHT22;368;48.698;9.116;2023-04-28T05:21:05;11.40;99.90
770;DHT22;368;48.698;9.116;2023-04-28T05:23:32;11.30;99.90
770;DHT22;368;48.698;9.116;2023-04-28T05:26:00;11.30;99.90
770;DHT22;368;48.698;9.116;2023-04-28T05:28:29;11.40;99.90
770;DHT22;368;48.698;9.116;2023-04-28T05:30:56;11.50;99.90
770;DHT22;368;48.698;9.116;2023-04-28T05:33:23;11.40;99.90
770;DHT22;368;48.698;9.116;2023-04-28T05:35:49;11.50;99.90
770;DHT22;368;48.698;9.116;2023-04-28T05:38:16;11.50;99.90
770;DHT22;368;48.698;9.116;2023-04-28T05:40:43;11.40;99.90
770;DHT22;368;48.698;9.116;2023-04-28T05:43:11;11.60;99.90
770;DHT22;368;48.698;9.116;2023-04-28T05:45:38;11.60;99.90
770;DHT22;368;48.698;9.116;2023-04-28T05:48:05;11.30;99.90
770;DHT22;368;48.698;9.116;2023-04-28T05:50:32;11.60;99.90
770;DHT22;368;48.698;9.116;2023-04-28T05:52:59;11.40;99.90
770;DHT22;368;48.698;9.116;2023-04-28T05:55:26;11.40;99.90
770;DHT22;368;48.698;9.116;2023-04-28T05:57:53;11.80;99.90
770;DHT22;368;48.698;9.116;2023-04-28T06:00:22;11.50;99.90
770;DHT22;368;48.698;9.116;2023-04-28T06:02:48;11.70;99.90
770;DHT22;368;48.698;9.116;2023-04-28T06:05:15;11.80;99.90
770;DHT22;368;48.698;9.116;2023-04-28T06:07:42;11.40;99.90
770;DHT22;368;48.698;9.116;2023-04-28T06:10:09;11.50;99.90
770;DHT22;368;48.698;9.116;2023-04-28T06:12:37;11.60;99.90
770;DHT22;368;48.698;9.116;2023-04-28T06:15:04;11.80;99.90
770;DHT22;368;48.698;9.116;2023-04-28T06:17:33;11.80;99.90
770;DHT22;368;48.698;9.116;2023-04-28T06:20:00;11.90;99.90
770;DHT22;368;48.698;9.116;2023-04-28T06:22:26;11.60;99.90
770;DHT22;368;48.698;9.116;2023-04-28T06:24:53;11.60;99.90
770;DHT22;368;48.698;9.116;2023-04-28T06:27:20;11.90;99.90
770;DHT22;368;48.698;9.116;2023-04-28T06:29:46;11.70;99.90
770;DHT22;368;48.698;9.116;2023-04-28T06:32:13;11.80;99.90
770;DHT22;368;48.698;9.116;2023-04-28T06:34:41;11.70;99.90
770;DHT22;368;48.698;9.116;2023-04-28T06:37:08;11.80;99.90
770;DHT22;368;48.698;9.116;2023-04-28T06:39:35;11.80;99.90
770;DHT22;368;48.698;9.116;2023-04-28T06:42:02;12.10;99.90
770;DHT22;368;48.698;9.116;2023-04-28T06:44:29;11.90;99.90
770;DHT22;368;48.698;9.116;2023-04-28T06:46:56;12.10;99.90
770;DHT22;368;48.698;9.116;2023-04-28T06:49:22;12.00;99.90
770;DHT22;368;48.698;9.116;2023-04-28T06:51:50;12.10;99.90
770;DHT22;368;48.698;9.116;2023-04-28T06:54:17;12.00;99.90
770;DHT22;368;48.698;9.116;2023-04-28T06:56:44;11.90;99.90
770;DHT22;368;48.698;9.116;2023-04-28T06:59:11;12.10;99.90
770;DHT22;368;48.698;9.116;2023-04-28T07:01:37;12.20;99.90
770;DHT22;368;48.698;9.116;2023-04-28T07:04:04;12.10;99.90
770;DHT22;368;48.698;9.116;2023-04-28T07:06:31;12.30;99.90
770;DHT22;368;48.698;9.116;2023-04-28T07:08:59;12.40;99.90
770;DHT22;368;48.698;9.116;2023-04-28T07:11:26;12.60;99.90
770;DHT22;368;48.698;9.116;2023-04-28T07:13:52;12.50;99.90
770;DHT22;368;48.698;9.116;2023-04-28T07:16:19;12.50;99.90
770;DHT22;368;48.698;9.116;2023-04-28T07:18:46;12.60;99.90
770;DHT22;368;48.698;9.116;2023-04-28T07:21:13;12.40;99.90
770;DHT22;368;48.698;9.116;2023-04-28T07:23:40;12.80;99.90
770;DHT22;368;48.698;9.116;2023-04-28T07:26:09;12.60;99.90
770;DHT22;368;48.698;9.116;2023-04-28T07:28:35;12.70;99.90
770;DHT22;368;48.698;9.116;2023-04-28T07:31:02;12.90;99.90
770;DHT22;368;48.698;9.116;2023-04-28T07:33:29;12.70;99.90
770;DHT22;368;48.698;9.116;2023-04-28T07:35:56;13.00;99.90
770;DHT22;368;48.698;9.116;2023-04-28T07:38:22;12.90;99.90
770;DHT22;368;48.698;9.116;2023-04-28T07:40:49;12.80;99.90
770;DHT22;368;48.698;9.116;2023-04-28T07:43:17;13.00;99.90
770;DHT22;368;48.698;9.116;2023-04-28T07:45:44;12.80;99.90
770;DHT22;368;48.698;9.116;2023-04-28T07:48:13;12.70;99.90
770;DHT22;368;48.698;9.116;2023-04-28T07:50:40;12.70;99.90
770;DHT22;368;48.698;9.116;2023-04-28T07:53:07;12.80;99.90
770;DHT22;368;48.698;9.116;2023-04-28T07:55:34;13.00;99.90
770;DHT22;368;48.698;9.116;2023-04-28T07:58:01;12.90;99.90
770;DHT22;368;48.698;9.116;2023-04-28T08:00:29;13.10;99.90
770;DHT22;368;48.698;9.116;2023-04-28T08:02:56;12.70;99.90
770;DHT22;368;48.698;9.116;2023-04-28T08:05:23;12.50;99.90
770;DHT22;368;48.698;9.116;2023-04-28T08:07:50;12.90;99.90
770;DHT22;368;48.698;9.116;2023-04-28T08:10:16;12.80;99.90
770;DHT22;368;48.698;9.116;2023-04-28T08:12:43;12.60;99.90
770;DHT22;368;48.698;9.116;2023-04-28T08:15:11;12.40;99.90
770;DHT22;368;48.698;9.116;2023-04-28T08:17:39;12.50;99.90
770;DHT22;368;48.698;9.116;2023-04-28T08:20:07;12.50;99.90
770;DHT22;368;48.698;9.116;2023-04-28T08:22:33;12.30;99.90
770;DHT22;368;48.698;9.116;2023-04-28T08:25:00;12.50;99.90
770;DHT22;368;48.698;9.116;2023-04-28T08:27:27;12.50;99.90
770;DHT22;368;48.698;9.116;2023-04-28T08:29:54;12.40;99.90
770;DHT22;368;48.698;9.116;2023-04-28T08:32:21;12.60;99.90
770;DHT22;368;48.698;9.116;2023-04-28T08:34:49;12.40;99.90
770;DHT22;368;48.698;9.116;2023-04-28T08:37:16;12.40;99.90
770;DHT22;368;48.698;9.116;2023-04-28T08:39:42;12.50;99.90
770;DHT22;368;48.698;9.116;2023-04-28T08:42:09;12.70;99.90
770;DHT22;368;48.698;9.116;2023-04-28T08:44:37;12.90;99.90
770;DHT22;368;48.698;9.116;2023-04-28T08:47:11;12.70;99.90
770;DHT22;368;48.698;9.116;2023-04-28T08:49:39;12.80;99.90
770;DHT22;368;48.698;9.116;2023-04-28T08:52:11;12.80;99.90
770;DHT22;368;48.698;9.116;2023-04-28T08:54:38;12.90;99.90
770;DHT22;368;48.698;9.116;2023-04-28T08:57:08;13.10;99.90
770;DHT22;368;48.698;9.116;2023-04-28T08:59:38;13.10;99.90
770;DHT22;368;48.698;9.116;2023-04-28T09:02:06;13.00;99.90
770;DHT22;368;48.698;9.116;2023-04-28T09:04:33;13.20;99.90
770;DHT22;368;48.698;9.116;2023-04-28T09:07:00;13.10;99.90
770;DHT22;368;48.698;9.116;2023-04-28T09:09:29;13.30;99.90
770;DHT22;368;48.698;9.116;2023-04-28T09:11:58;13.10;99.90
770;DHT22;368;48.698;9.116;2023-04-28T09:14:26;13.10;99.90
770;DHT22;368;48.698;9.116;2023-04-28T09:16:53;13.00;99.90
770;DHT22;368;48.698;9.116;2023-04-28T09:19:20;13.50;99.90
770;DHT22;368;48.698;9.116;2023-04-28T09:21:52;13.30;99.90
770;DHT22;368;48.698;9.116;2023-04-28T09:24:30;13.40;99.90
770;DHT22;368;48.698;9.116;2023-04-28T09:26:58;13.40;99.90
770;DHT22;368;48.698;9.116;2023-04-28T09:29:25;13.60;99.90
770;DHT22;368;48.698;9.116;2023-04-28T09:31:51;13.70;99.90
770;DHT22;368;48.698;9.116;2023-04-28T09:34:19;13.50;99.90
770;DHT22;368;48.698;9.116;2023-04-28T09:36:46;13.60;99.90
770;DHT22;368;48.698;9.116;2023-04-28T09:39:13;13.60;99.90
770;DHT22;368;48.698;9.116;2023-04-28T09:41:42;13.90;99.90
770;DHT22;368;48.698;9.116;2023-04-28T09:44:13;14.00;99.90
770;DHT22;368;48.698;9.116;2023-04-28T09:46:41;14.40;99.90
770;DHT22;368;48.698;9.116;2023-04-28T09:49:09;14.70;99.90
770;DHT22;368;48.698;9.116;2023-04-28T09:51:36;14.80;99.90
770;DHT22;368;48.698;9.116;2023-04-28T09:54:03;15.20;99.90
770;DHT22;368;48.698;9.116;2023-04-28T09:56:31;15.30;99.90
770;DHT22;368;48.698;9.116;2023-04-28T09:59:00;16.00;99.90
770;DHT22;368;48.698;9.116;2023-04-28T10:01:32;16.60;99.90
770;DHT22;368;48.698;9.116;2023-04-28T10:04:03;17.40;99.90
770;DHT22;368;48.698;9.116;2023-04-28T10:06:33;18.10;99.90
770;DHT22;368;48.698;9.116;2023-04-28T10:09:01;18.20;99.90
770;DHT22;368;48.698;9.116;2023-04-28T10:11:27;17.90;99.90
770;DHT22;368;48.698;9.116;2023-04-28T10:13:55;17.30;99.90
770;DHT22;368;48.698;9.116;2023-04-28T10:16:23;17.20;99.90
770;DHT22;368;48.698;9.116;2023-04-28T10:18:53;17.20;99.90
770;DHT22;368;48.698;9.116;2023-04-28T10:21:22;17.10;99.90
770;DHT22;368;48.698;9.116;2023-04-28T10:24:03;16.90;99.90
770;DHT22;368;48.698;9.116;2023-04-28T10:27:01;16.50;99.90
770;DHT22;368;48.698;9.116;2023-04-28T10:29:29;16.30;99.90
770;DHT22;368;48.698;9.116;2023-04-28T10:32:21;16.30;99.90
770;DHT22;368;48.698;9.116;2023-04-28T10:34:48;16.40;99.90
770;DHT22;368;48.698;9.116;2023-04-28T10:37:15;16.50;99.90
770;DHT22;368;48.698;9.116;2023-04-28T10:42:51;17.20;99.90
770;DHT22;368;48.698;9.116;2023-04-28T10:48:22;17.00;99.90
770;DHT22;368;48.698;9.116;2023-04-28T10:51:29;17.00;99.90
770;DHT22;368;48.698;9.116;2023-04-28T10:54:13;17.20;99.90
770;DHT22;368;48.698;9.116;2023-04-28T10:57:14;17.70;99.90
770;DHT22;368;48.698;9.116;2023-04-28T10:59:40;18.00;99.90
770;DHT22;368;48.698;9.116;2023-04-28T11:02:36;18.60;99.90
770;DHT22;368;48.698;9.116;2023-04-28T11:05:12;18.80;99.90
770;DHT22;368;48.698;9.116;2023-04-28T11:07:39;18.80;99.90
770;DHT22;368;48.698;9.116;2023-04-28T11:10:07;18.60;99.90
770;DHT22;368;48.698;9.116;2023-04-28T11:12:33;18.50;99.90
770;DHT22;368;48.698;9.116;2023-04-28T11:15:11;18.30;99.90
770;DHT22;368;48.698;9.116;2023-04-28T11:17:40;18.20;99.90
770;DHT22;368;48.698;9.116;2023-04-28T11:20:13;18.00;99.90
770;DHT22;368;48.698;9.116;2023-04-28T11:22:40;17.80;99.90
770;DHT22;368;48.698;9.116;2023-04-28T11:25:07;17.70;99.90
770;DHT22;368;48.698;9.116;2023-04-28T11:27:34;17.80;99.90
770;DHT22;368;48.698;9.116;2023-04-28T11:30:02;18.10;99.90
770;DHT22;368;48.698;9.116;2023-04-28T11:32:31;18.40;99.90
770;DHT22;368;48.698;9.116;2023-04-28T11:34:58;18.50;99.90
770;DHT22;368;48.698;9.116;2023-04-28T11:37:27;18.90;99.90
770;DHT22;368;48.698;9.116;2023-04-28T11:39:53;19.00;99.90
770;DHT22;368;48.698;9.116;2023-04-28T11:42:21;19.20;99.90
770;DHT22;368;48.698;9.116;2023-04-28T11:44:51;19.20;99.90
770;DHT22;368;48.698;9.116;2023-04-28T11:47:28;19.50;99.90
770;DHT22;368;48.698;9.116;2023-04-28T11:49:55;18.90;99.90
770;DHT22;368;48.698;9.116;2023-04-28T11:52:23;18.60;99.90
770;DHT22;368;48.698;9.116;2023-04-28T11:54:56;18.40;99.90
770;DHT22;368;48.698;9.116;2023-04-28T11:57:25;18.50;99.90
770;DHT22;368;48.698;9.116;2023-04-28T11:59:52;18.60;99.90
770;DHT22;368;48.698;9.116;2023-04-28T12:02:24;18.50;99.90
770;DHT22;368;48.698;9.116;2023-04-28T12:04:53;18.40;99.90
770;DHT22;368;48.698;9.116;2023-04-28T12:07:20;18.10;99.90
770;DHT22;368;48.698;9.116;2023-04-28T12:09:48;17.90;99.90
770;DHT22;368;48.698;9.116;2023-04-28T12:12:29;17.90;99.90
770;DHT22;368;48.698;9.116;2023-04-28T12:14:59;17.70;99.90
770;DHT22;368;48.698;9.116;2023-04-28T12:17:27;17.80;99.90
770;DHT22;368;48.698;9.116;2023-04-28T12:19:54;17.70;99.90
770;DHT22;368;48.698;9.116;2023-04-28T12:22:22;17.80;99.90
770;DHT22;368;48.698;9.116;2023-04-28T12:25:02;18.10;99.90
770;DHT22;368;48.698;9.116;2023-04-28T12:27:31;18.50;99.90
770;DHT22;368;48.698;9.116;2023-04-28T12:29:57;18.90;99.90
770;DHT22;368;48.698;9.116;2023-04-28T12:32:36;19.00;99.90
770;DHT22;368;48.698;9.116;2023-04-28T12:35:04;19.40;99.90
770;DHT22;368;48.698;9.116;2023-04-28T12:37:31;19.60;99.90
770;DHT22;368;48.698;9.116;2023-04-28T12:39:58;19.70;99.90
770;DHT22;368;48.698;9.116;2023-04-28T12:42:25;19.40;99.90
770;DHT22;368;48.698;9.116;2023-04-28T12:44:53;19.10;99.90
770;DHT22;368;48.698;9.116;2023-04-28T12:47:20;18.60;99.90
770;DHT22;368;48.698;9.116;2023-04-28T12:49:47;18.30;99.90
770;DHT22;368;48.698;9.116;2023-04-28T12:52:16;18.40;99.90
770;DHT22;368;48.698;9.116;2023-04-28T12:54:43;18.40;99.90
770;DHT22;368;48.698;9.116;2023-04-28T12:57:11;18.20;99.90
770;DHT22;368;48.698;9.116;2023-04-28T12:59:38;18.30;99.90
770;DHT22;368;48.698;9.116;2023-04-28T13:02:07;18.50;99.90
770;DHT22;368;48.698;9.116;2023-04-28T13:04:33;18.10;99.90
770;DHT22;368;48.698;9.116;2023-04-28T13:07:00;17.80;99.90
770;DHT22;368;48.698;9.116;2023-04-28T13:09:27;17.80;99.90
770;DHT22;368;48.698;9.116;2023-04-28T13:11:54;17.60;99.90
770;DHT22;368;48.698;9.116;2023-04-28T13:14:21;17.70;99.90
770;DHT22;368;48.698;9.116;2023-04-28T13:16:48;17.80;99.90
770;DHT22;368;48.698;9.116;2023-04-28T13:19:17;18.00;99.90
770;DHT22;368;48.698;9.116;2023-04-28T13:21:44;18.70;99.90
770;DHT22;368;48.698;9.116;2023-04-28T13:24:11;20.00;99.90
770;DHT22;368;48.698;9.116;2023-04-28T13:26:38;20.20;98.50
770;DHT22;368;48.698;9.116;2023-04-28T13:29:05;20.00;99.50
770;DHT22;368;48.698;9.116;2023-04-28T13:31:33;20.10;99.10
770;DHT22;368;48.698;9.116;2023-04-28T13:34:00;19.90;98.70
770;DHT22;368;48.698;9.116;2023-04-28T13:36:30;19.30;99.80
770;DHT22;368;48.698;9.116;2023-04-28T13:38:57;19.00;99.90
770;DHT22;368;48.698;9.116;2023-04-28T13:41:24;18.40;99.90
770;DHT22;368;48.698;9.116;2023-04-28T13:43:51;18.10;99.90
770;DHT22;368;48.698;9.116;2023-04-28T13:46:18;17.80;99.90
770;DHT22;368;48.698;9.116;2023-04-28T13:48:45;17.80;99.90
770;DHT22;368;48.698;9.116;2023-04-28T13:51:12;17.70;99.90
770;DHT22;368;48.698;9.116;2023-04-28T13:53:40;17.70;99.90
770;DHT22;368;48.698;9.116;2023-04-28T13:56:07;18.00;99.90
770;DHT22;368;48.698;9.116;2023-04-28T13:58:35;18.10;99.90
770;DHT22;368;48.698;9.116;2023-04-28T14:01:03;18.10;99.90
770;DHT22;368;48.698;9.116;2023-04-28T14:03:30;18.00;99.90
770;DHT22;368;48.698;9.116;2023-04-28T14:05:57;18.00;99.90
770;DHT22;368;48.698;9.116;2023-04-28T14:08:24;17.90;99.90
770;DHT22;368;48.698;9.116;2023-04-28T14:10:52;18.00;99.90
770;DHT22;368;48.698;9.116;2023-04-28T14:13:19;18.00;99.90
770;DHT22;368;48.698;9.116;2023-04-28T14:15:46;17.70;99.90
770;DHT22;368;48.698;9.116;2023-04-28T14:18:12;17.20;99.90
770;DHT22;368;48.698;9.116;2023-04-28T14:20:39;16.90;99.90
770;DHT22;368;48.698;9.116;2023-04-28T14:23:06;16.70;99.90
770;DHT22;368;48.698;9.116;2023-04-28T14:25:33;16.10;99.90
770;DHT22;368;48.698;9.116;2023-04-28T14:28:01;16.40;99.90
770;DHT22;368;48.698;9.116;2023-04-28T14:30:28;16.50;99.90
770;DHT22;368;48.698;9.116;2023-04-28T14:32:55;16.60;99.90
770;DHT22;368;48.698;9.116;2023-04-28T14:35:22;16.50;99.90
770;DHT22;368;48.698;9.116;2023-04-28T14:37:49;16.60;99.90
770;DHT22;368;48.698;9.116;2023-04-28T14:40:17;16.70;99.90
770;DHT22;368;48.698;9.116;2023-04-28T14:42:44;16.80;99.90
770;DHT22;368;48.698;9.116;2023-04-28T14:45:12;16.70;99.90
770;DHT22;368;48.698;9.116;2023-04-28T14:47:39;16.70;99.90
770;DHT22;368;48.698;9.116;2023-04-28T14:50:08;16.50;99.90
770;DHT22;368;48.698;9.116;2023-04-28T14:52:35;16.40;99.90
770;DHT22;368;48.698;9.116;2023-04-28T14:55:03;16.30;99.90
770;DHT22;368;48.698;9.116;2023-04-28T14:57:30;16.10;99.90
770;DHT22;368;48.698;9.116;2023-04-28T14:59:59;16.00;99.90
770;DHT22;368;48.698;9.116;2023-04-28T15:02:27;15.50;99.90
770;DHT22;368;48.698;9.116;2023-04-28T15:04:54;16.00;99.90
770;DHT22;368;48.698;9.116;2023-04-28T15:07:22;15.90;99.90
770;DHT22;368;48.698;9.116;2023-04-28T15:09:52;15.60;99.90
770;DHT22;368;48.698;9.116;2023-04-28T15:12:19;15.50;99.90
770;DHT22;368;48.698;9.116;2023-04-28T15:14:46;15.60;99.90
770;DHT22;368;48.698;9.116;2023-04-28T15:17:13;15.50;99.90
770;DHT22;368;48.698;9.116;2023-04-28T15:19:41;15.20;99.90
770;DHT22;368;48.698;9.116;2023-04-28T15:22:08;15.30;99.90
770;DHT22;368;48.698;9.116;2023-04-28T15:24:35;15.40;99.90
770;DHT22;368;48.698;9.116;2023-04-28T15:27:01;15.30;99.90
770;DHT22;368;48.698;9.116;2023-04-28T15:29:29;15.10;99.90
770;DHT22;368;48.698;9.116;2023-04-28T15:31:56;14.90;99.90
770;DHT22;368;48.698;9.116;2023-04-28T15:34:23;15.00;99.90
770;DHT22;368;48.698;9.116;2023-04-28T15:36:51;14.90;99.90
770;DHT22;368;48.698;9.116;2023-04-28T15:39:18;14.90;99.90
770;DHT22;368;48.698;9.116;2023-04-28T15:41:45;15.00;99.90
770;DHT22;368;48.698;9.116;2023-04-28T15:44:12;15.10;99.90
770;DHT22;368;48.698;9.116;2023-04-28T15:46:38;15.30;99.90
770;DHT22;368;48.698;9.116;2023-04-28T15:49:05;15.30;99.90
770;DHT22;368;48.698;9.116;2023-04-28T15:51:32;15.60;99.90
770;DHT22;368;48.698;9.116;2023-04-28T15:54:00;15.60;99.90
770;DHT22;368;48.698;9.116;2023-04-28T15:56:27;15.80;99.90
770;DHT22;368;48.698;9.116;2023-04-28T15:58:55;15.40;99.90
770;DHT22;368;48.698;9.116;2023-04-28T16:01:22;15.50;99.90
770;DHT22;368;48.698;9.116;2023-04-28T16:03:49;15.60;99.90
770;DHT22;368;48.698;9.116;2023-04-28T16:06:15;15.50;99.90
770;DHT22;368;48.698;9.116;2023-04-28T16:08:42;15.20;99.90
770;DHT22;368;48.698;9.116;2023-04-28T16:11:10;15.40;99.90
770;DHT22;368;48.698;9.116;2023-04-28T16:13:42;15.40;99.90
770;DHT22;368;48.698;9.116;2023-04-28T16:16:09;15.30;99.90
770;DHT22;368;48.698;9.116;2023-04-28T16:18:36;15.20;99.90
770;DHT22;368;48.698;9.116;2023-04-28T16:21:03;15.20;99.90
770;DHT22;368;48.698;9.116;2023-04-28T16:23:30;15.00;99.90
770;DHT22;368;48.698;9.116;2023-04-28T16:25:56;14.90;99.90
770;DHT22;368;48.698;9.116;2023-04-28T16:28:24;14.80;99.90
770;DHT22;368;48.698;9.116;2023-04-28T16:30:52;14.90;99.90
770;DHT22;368;48.698;9.116;2023-04-28T16:33:18;15.20;99.90
770;DHT22;368;48.698;9.116;2023-04-28T16:35:52;15.40;99.90
770;DHT22;368;48.698;9.116;2023-04-28T16:38:20;15.40;99.90
770;DHT22;368;48.698;9.116;2023-04-28T16:40:46;15.40;99.90
770;DHT22;368;48.698;9.116;2023-04-28T16:43:13;15.60;99.90
770;DHT22;368;48.698;9.116;2023-04-28T16:45:41;15.40;99.90